sensor_id;sensor_type;location;lat;lon;timestamp;temperature;humidity
21335;DHT22;69435;52.670;13.544;2023-11-21T00:02:21;9.50;69.80
21335;DHT22;69435;52.670;13.544;2023-11-21T00:05:08;9.50;69.70
21335;DHT22;69435;52.670;13.544;2023-11-21T00:07:55;9.50;69.60
21335;DHT22;69435;52.670;13.544;2023-11-21T00:10:41;9.50;69.50
21335;DHT22;69435;52.670;13.544;2023-11-21T00:13:27;9.40;70.20
21335;DHT22;69435;52.670;13.544;2023-11-21T00:16:13;9.40;69.60
21335;DHT22;69435;52.670;13.544;2023-11-21T00:18:59;9.40;69.60
21335;DHT22;69435;52.670;13.544;2023-11-21T00:21:45;9.30;70.10
21335;DHT22;69435;52.670;13.544;2023-11-21T00:24:31;9.30;69.40
21335;DHT22;69435;52.670;13.544;2023-11-21T00:27:18;9.30;69.50
21335;DHT22;69435;52.670;13.544;2023-11-21T00:30:04;9.30;69.50
21335;DHT22;69435;52.670;13.544;2023-11-21T00:32:52;9.20;69.40
21335;DHT22;69435;52.670;13.544;2023-11-21T00:35:38;9.30;69.40
21335;DHT22;69435;52.670;13.544;2023-11-21T00:38:24;9.20;69.30
21335;DHT22;69435;52.670;13.544;2023-11-21T00:41:10;9.10;69.40
21335;DHT22;69435;52.670;13.544;2023-11-21T00:43:56;9.20;69.60
21335;DHT22;69435;52.670;13.544;2023-11-21T00:46:42;9.20;69.40
21335;DHT22;69435;52.670;13.544;2023-11-21T00:49:28;9.10;69.50
21335;DHT22;69435;52.670;13.544;2023-11-21T00:52:14;9.10;69.60
21335;DHT22;69435;52.670;13.544;2023-11-21T00:55:02;9.00;69.50
21335;DHT22;69435;52.670;13.544;2023-11-21T00:57:48;9.00;69.60
21335;DHT22;69435;52.670;13.544;2023-11-21T01:00:35;9.00;69.50
21335;DHT22;69435;52.670;13.544;2023-11-21T01:03:21;9.00;69.30
21335;DHT22;69435;52.670;13.544;2023-11-21T01:06:07;9.00;69.30
21335;DHT22;69435;52.670;13.544;2023-11-21T01:08:54;8.90;69.40
21335;DHT22;69435;52.670;13.544;2023-11-21T01:11:40;8.90;69.40
21335;DHT22;69435;52.670;13.544;2023-11-21T01:14:27;8.80;69.30
21335;DHT22;69435;52.670;13.544;2023-11-21T01:17:13;8.80;70.20
21335;DHT22;69435;52.670;13.544;2023-11-21T01:19:59;8.80;69.50
21335;DHT22;69435;52.670;13.544;2023-11-21T01:22:46;8.80;69.40
21335;DHT22;69435;52.670;13.544;2023-11-21T01:25:34;8.80;69.30
21335;DHT22;69435;52.670;13.544;2023-11-21T01:28:21;8.80;69.30
21335;DHT22;69435;52.670;13.544;2023-11-21T01:31:07;8.80;69.30
21335;DHT22;69435;52.670;13.544;2023-11-21T01:33:53;8.70;69.30
21335;DHT22;69435;52.670;13.544;2023-11-21T01:36:40;8.70;69.30
21335;DHT22;69435;52.670;13.544;2023-11-21T01:39:26;8.60;70.10
21335;DHT22;69435;52.670;13.544;2023-11-21T01:42:15;8.60;69.40
21335;DHT22;69435;52.670;13.544;2023-11-21T01:45:01;8.60;69.40
21335;DHT22;69435;52.670;13.544;2023-11-21T01:47:50;8.60;69.50
21335;DHT22;69435;52.670;13.544;2023-11-21T01:50:37;8.60;69.50
21335;DHT22;69435;52.670;13.544;2023-11-21T01:53:24;8.60;69.50
21335;DHT22;69435;52.670;13.544;2023-11-21T01:56:12;8.70;69.50
21335;DHT22;69435;52.670;13.544;2023-11-21T01:58:58;8.60;69.50
21335;DHT22;69435;52.670;13.544;2023-11-21T02:01:45;8.60;69.60
21335;DHT22;69435;52.670;13.544;2023-11-21T02:04:36;8.60;69.60
21335;DHT22;69435;52.670;13.544;2023-11-21T02:07:22;8.60;69.50
21335;DHT22;69435;52.670;13.544;2023-11-21T02:10:09;8.60;69.50
21335;DHT22;69435;52.670;13.544;2023-11-21T02:12:55;8.60;69.50
21335;DHT22;69435;52.670;13.544;2023-11-21T02:15:42;8.60;69.60
21335;DHT22;69435;52.670;13.544;2023-11-21T02:18:29;8.60;69.50
21335;DHT22;69435;52.670;13.544;2023-11-21T02:21:15;8.60;69.20
21335;DHT22;69435;52.670;13.544;2023-11-21T02:24:02;8.60;69.30
21335;DHT22;69435;52.670;13.544;2023-11-21T02:26:49;8.50;69.30
21335;DHT22;69435;52.670;13.544;2023-11-21T02:29:37;8.60;69.40
21335;DHT22;69435;52.670;13.544;2023-11-21T02:32:23;8.50;69.40
21335;DHT22;69435;52.670;13.544;2023-11-21T02:35:11;8.50;69.50
21335;DHT22;69435;52.670;13.544;2023-11-21T02:37:57;8.60;69.50
21335;DHT22;69435;52.670;13.544;2023-11-21T02:40:44;8.60;69.40
21335;DHT22;69435;52.670;13.544;2023-11-21T02:43:30;8.50;69.40
21335;DHT22;69435;52.670;13.544;2023-11-21T02:46:16;8.50;69.30
21335;DHT22;69435;52.670;13.544;2023-11-21T02:49:03;8.50;69.40
21335;DHT22;69435;52.670;13.544;2023-11-21T02:51:51;8.50;69.30
21335;DHT22;69435;52.670;13.544;2023-11-21T02:54:37;8.50;69.20
21335;DHT22;69435;52.670;13.544;2023-11-21T02:57:23;8.50;69.20
21335;DHT22;69435;52.670;13.544;2023-11-21T03:00:10;8.50;69.20
21335;DHT22;69435;52.670;13.544;2023-11-21T03:02:58;8.50;69.20
21335;DHT22;69435;52.670;13.544;2023-11-21T03:05:44;8.40;69.10
21335;DHT22;69435;52.670;13.544;2023-11-21T03:08:30;8.40;69.10
21335;DHT22;69435;52.670;13.544;2023-11-21T03:11:16;8.40;69.10
21335;DHT22;69435;52.670;13.544;2023-11-21T03:14:02;8.40;69.00
21335;DHT22;69435;52.670;13.544;2023-11-21T03:16:49;8.40;69.00
21335;DHT22;69435;52.670;13.544;2023-11-21T03:19:35;8.40;69.00
21335;DHT22;69435;52.670;13.544;2023-11-21T03:22:21;8.40;69.00
21335;DHT22;69435;52.670;13.544;2023-11-21T03:25:07;8.40;69.00
21335;DHT22;69435;52.670;13.544;2023-11-21T03:27:56;8.30;68.90
21335;DHT22;69435;52.670;13.544;2023-11-21T03:30:43;8.30;68.80
21335;DHT22;69435;52.670;13.544;2023-11-21T03:33:29;8.30;68.90
21335;DHT22;69435;52.670;13.544;2023-11-21T03:36:15;8.30;68.90
21335;DHT22;69435;52.670;13.544;2023-11-21T03:39:01;8.20;68.60
21335;DHT22;69435;52.670;13.544;2023-11-21T03:41:47;8.20;68.50
21335;DHT22;69435;52.670;13.544;2023-11-21T03:44:34;8.20;68.40
21335;DHT22;69435;52.670;13.544;2023-11-21T03:47:20;8.20;68.40
21335;DHT22;69435;52.670;13.544;2023-11-21T03:50:06;8.20;68.40
21335;DHT22;69435;52.670;13.544;2023-11-21T03:52:54;8.10;68.40
21335;DHT22;69435;52.670;13.544;2023-11-21T03:55:40;8.10;68.20
21335;DHT22;69435;52.670;13.544;2023-11-21T03:58:26;8.10;68.20
21335;DHT22;69435;52.670;13.544;2023-11-21T04:01:15;8.10;68.20
21335;DHT22;69435;52.670;13.544;2023-11-21T04:04:06;8.10;68.10
21335;DHT22;69435;52.670;13.544;2023-11-21T04:06:52;8.00;68.00
21335;DHT22;69435;52.670;13.544;2023-11-21T04:09:39;8.00;68.00
21335;DHT22;69435;52.670;13.544;2023-11-21T04:12:27;8.00;67.90
21335;DHT22;69435;52.670;13.544;2023-11-21T04:15:13;8.00;67.80
21335;DHT22;69435;52.670;13.544;2023-11-21T04:17:59;7.90;67.80
21335;DHT22;69435;52.670;13.544;2023-11-21T04:20:46;7.90;67.70
21335;DHT22;69435;52.670;13.544;2023-11-21T04:23:32;7.90;67.80
21335;DHT22;69435;52.670;13.544;2023-11-21T04:26:18;7.90;67.80
21335;DHT22;69435;52.670;13.544;2023-11-21T04:29:04;7.90;67.60
21335;DHT22;69435;52.670;13.544;2023-11-21T04:31:50;7.80;67.70
21335;DHT22;69435;52.670;13.544;2023-11-21T04:34:36;7.90;67.90
21335;DHT22;69435;52.670;13.544;2023-11-21T04:37:22;7.90;67.90
21335;DHT22;69435;52.670;13.544;2023-11-21T04:40:08;7.90;67.90
21335;DHT22;69435;52.670;13.544;2023-11-21T04:42:55;7.90;67.80
21335;DHT22;69435;52.670;13.544;2023-11-21T04:45:42;7.90;67.80
21335;DHT22;69435;52.670;13.544;2023-11-21T04:48:28;7.90;67.70
21335;DHT22;69435;52.670;13.544;2023-11-21T04:51:14;7.90;67.60
21335;DHT22;69435;52.670;13.544;2023-11-21T04:54:01;7.80;67.40
21335;DHT22;69435;52.670;13.544;2023-11-21T04:56:47;7.80;67.40
21335;DHT22;69435;52.670;13.544;2023-11-21T04:59:33;7.80;67.30
21335;DHT22;69435;52.670;13.544;2023-11-21T05:02:20;7.80;67.10
21335;DHT22;69435;52.670;13.544;2023-11-21T05:05:07;7.80;67.30
21335;DHT22;69435;52.670;13.544;2023-11-21T05:07:56;7.80;67.40
21335;DHT22;69435;52.670;13.544;2023-11-21T05:10:42;7.80;67.30
21335;DHT22;69435;52.670;13.544;2023-11-21T05:13:28;7.70;67.40
21335;DHT22;69435;52.670;13.544;2023-11-21T05:16:14;7.70;67.40
21335;DHT22;69435;52.670;13.544;2023-11-21T05:19:01;7.70;67.40
21335;DHT22;69435;52.670;13.544;2023-11-21T05:21:47;7.70;67.30
21335;DHT22;69435;52.670;13.544;2023-11-21T05:24:33;7.70;67.30
21335;DHT22;69435;52.670;13.544;2023-11-21T05:27:19;7.70;67.30
21335;DHT22;69435;52.670;13.544;2023-11-21T05:30:05;7.70;67.30
21335;DHT22;69435;52.670;13.544;2023-11-21T05:32:52;7.70;67.20
21335;DHT22;69435;52.670;13.544;2023-11-21T05:35:39;7.70;67.40
21335;DHT22;69435;52.670;13.544;2023-11-21T05:38:25;7.70;67.30
21335;DHT22;69435;52.670;13.544;2023-11-21T05:41:11;7.70;67.20
21335;DHT22;69435;52.670;13.544;2023-11-21T05:43:58;7.70;67.40
21335;DHT22;69435;52.670;13.544;2023-11-21T05:46:45;7.60;67.20
21335;DHT22;69435;52.670;13.544;2023-11-21T05:49:31;7.60;67.10
21335;DHT22;69435;52.670;13.544;2023-11-21T05:52:18;7.50;67.10
21335;DHT22;69435;52.670;13.544;2023-11-21T05:55:04;7.50;67.20
21335;DHT22;69435;52.670;13.544;2023-11-21T05:57:53;7.50;67.30
21335;DHT22;69435;52.670;13.544;2023-11-21T06:00:39;7.50;67.40
21335;DHT22;69435;52.670;13.544;2023-11-21T06:03:26;7.50;67.50
21335;DHT22;69435;52.670;13.544;2023-11-21T06:06:12;7.50;67.60
21335;DHT22;69435;52.670;13.544;2023-11-21T06:08:58;7.50;67.60
21335;DHT22;69435;52.670;13.544;2023-11-21T06:11:44;7.60;67.40
21335;DHT22;69435;52.670;13.544;2023-11-21T06:14:30;7.60;67.40
21335;DHT22;69435;52.670;13.544;2023-11-21T06:17:19;7.50;67.40
21335;DHT22;69435;52.670;13.544;2023-11-21T06:20:09;7.60;67.40
21335;DHT22;69435;52.670;13.544;2023-11-21T06:22:59;7.60;67.10
21335;DHT22;69435;52.670;13.544;2023-11-21T06:25:49;7.60;67.20
21335;DHT22;69435;52.670;13.544;2023-11-21T06:28:35;7.50;67.30
21335;DHT22;69435;52.670;13.544;2023-11-21T06:31:24;7.50;67.10
21335;DHT22;69435;52.670;13.544;2023-11-21T06:34:10;7.50;67.10
21335;DHT22;69435;52.670;13.544;2023-11-21T06:36:56;7.50;67.10
21335;DHT22;69435;52.670;13.544;2023-11-21T06:39:42;7.50;67.10
21335;DHT22;69435;52.670;13.544;2023-11-21T06:42:28;7.50;67.10
21335;DHT22;69435;52.670;13.544;2023-11-21T06:45:16;7.50;67.00
21335;DHT22;69435;52.670;13.544;2023-11-21T06:48:02;7.40;66.90
21335;DHT22;69435;52.670;13.544;2023-11-21T06:50:48;7.40;66.70
21335;DHT22;69435;52.670;13.544;2023-11-21T06:53:36;7.40;66.50
21335;DHT22;69435;52.670;13.544;2023-11-21T06:56:22;7.40;66.40
21335;DHT22;69435;52.670;13.544;2023-11-21T06:59:08;7.40;66.30
21335;DHT22;69435;52.670;13.544;2023-11-21T07:01:56;7.30;66.30
21335;DHT22;69435;52.670;13.544;2023-11-21T07:04:43;7.40;66.30
21335;DHT22;69435;52.670;13.544;2023-11-21T07:07:29;7.30;66.30
21335;DHT22;69435;52.670;13.544;2023-11-21T07:10:15;7.40;66.40
21335;DHT22;69435;52.670;13.544;2023-11-21T07:13:02;7.30;66.20
21335;DHT22;69435;52.670;13.544;2023-11-21T07:15:49;7.40;66.20
21335;DHT22;69435;52.670;13.544;2023-11-21T07:18:35;7.40;66.40
21335;DHT22;69435;52.670;13.544;2023-11-21T07:21:21;7.40;66.40
21335;DHT22;69435;52.670;13.544;2023-11-21T07:24:08;7.40;66.40
21335;DHT22;69435;52.670;13.544;2023-11-21T07:26:54;7.40;66.40
21335;DHT22;69435;52.670;13.544;2023-11-21T07:29:42;7.50;66.30
21335;DHT22;69435;52.670;13.544;2023-11-21T07:32:28;7.40;66.10
21335;DHT22;69435;52.670;13.544;2023-11-21T07:35:14;7.40;66.10
21335;DHT22;69435;52.670;13.544;2023-11-21T07:38:00;7.40;66.10
21335;DHT22;69435;52.670;13.544;2023-11-21T07:40:46;7.50;66.30
21335;DHT22;69435;52.670;13.544;2023-11-21T07:43:32;7.50;66.20
21335;DHT22;69435;52.670;13.544;2023-11-21T07:46:20;7.50;66.10
21335;DHT22;69435;52.670;13.544;2023-11-21T07:49:06;7.60;65.70
21335;DHT22;69435;52.670;13.544;2023-11-21T07:51:52;7.50;65.30
21335;DHT22;69435;52.670;13.544;2023-11-21T07:54:39;7.50;65.50
21335;DHT22;69435;52.670;13.544;2023-11-21T07:57:25;7.50;65.60
21335;DHT22;69435;52.670;13.544;2023-11-21T08:00:12;7.40;65.80
21335;DHT22;69435;52.670;13.544;2023-11-21T08:03:00;7.50;65.40
21335;DHT22;69435;52.670;13.544;2023-11-21T08:05:47;7.40;65.40
21335;DHT22;69435;52.670;13.544;2023-11-21T08:08:33;7.40;65.50
21335;DHT22;69435;52.670;13.544;2023-11-21T08:11:19;7.50;65.70
21335;DHT22;69435;52.670;13.544;2023-11-21T08:14:05;7.40;65.50
21335;DHT22;69435;52.670;13.544;2023-11-21T08:16:51;7.40;65.30
21335;DHT22;69435;52.670;13.544;2023-11-21T08:19:38;7.40;65.20
21335;DHT22;69435;52.670;13.544;2023-11-21T08:22:24;7.40;65.30
21335;DHT22;69435;52.670;13.544;2023-11-21T08:25:11;7.40;65.50
21335;DHT22;69435;52.670;13.544;2023-11-21T08:27:57;7.40;65.50
21335;DHT22;69435;52.670;13.544;2023-11-21T08:30:43;7.40;65.50
21335;DHT22;69435;52.670;13.544;2023-11-21T08:33:29;7.40;65.50
21335;DHT22;69435;52.670;13.544;2023-11-21T08:36:15;7.50;65.60
21335;DHT22;69435;52.670;13.544;2023-11-21T08:39:01;7.50;65.50
21335;DHT22;69435;52.670;13.544;2023-11-21T08:41:48;7.50;65.40
21335;DHT22;69435;52.670;13.544;2023-11-21T08:44:34;7.50;65.10
21335;DHT22;69435;52.670;13.544;2023-11-21T08:47:20;7.40;65.00
21335;DHT22;69435;52.670;13.544;2023-11-21T08:50:07;7.40;65.10
21335;DHT22;69435;52.670;13.544;2023-11-21T08:52:53;7.40;65.00
21335;DHT22;69435;52.670;13.544;2023-11-21T08:55:39;7.30;65.10
21335;DHT22;69435;52.670;13.544;2023-11-21T08:58:25;7.30;65.20
21335;DHT22;69435;52.670;13.544;2023-11-21T09:01:12;7.30;65.20
21335;DHT22;69435;52.670;13.544;2023-11-21T09:03:58;7.20;65.10
21335;DHT22;69435;52.670;13.544;2023-11-21T09:06:44;7.20;65.30
21335;DHT22;69435;52.670;13.544;2023-11-21T09:09:30;7.20;65.40
21335;DHT22;69435;52.670;13.544;2023-11-21T09:12:16;7.10;65.40
21335;DHT22;69435;52.670;13.544;2023-11-21T09:15:06;7.10;65.50
21335;DHT22;69435;52.670;13.544;2023-11-21T09:17:55;7.20;65.70
21335;DHT22;69435;52.670;13.544;2023-11-21T09:20:42;7.10;65.50
21335;DHT22;69435;52.670;13.544;2023-11-21T09:23:31;7.20;65.50
21335;DHT22;69435;52.670;13.544;2023-11-21T09:26:17;7.10;65.60
21335;DHT22;69435;52.670;13.544;2023-11-21T09:29:04;7.10;65.50
21335;DHT22;69435;52.670;13.544;2023-11-21T09:31:50;7.20;65.30
21335;DHT22;69435;52.670;13.544;2023-11-21T09:34:40;7.20;64.80
21335;DHT22;69435;52.670;13.544;2023-11-21T09:37:28;7.20;64.70
21335;DHT22;69435;52.670;13.544;2023-11-21T09:40:14;7.10;64.60
21335;DHT22;69435;52.670;13.544;2023-11-21T09:43:06;7.10;64.70
21335;DHT22;69435;52.670;13.544;2023-11-21T09:45:59;7.00;64.80
21335;DHT22;69435;52.670;13.544;2023-11-21T09:48:50;7.10;64.80
21335;DHT22;69435;52.670;13.544;2023-11-21T09:51:45;7.00;64.70
21335;DHT22;69435;52.670;13.544;2023-11-21T09:54:33;7.00;64.80
21335;DHT22;69435;52.670;13.544;2023-11-21T09:57:21;6.90;64.90
21335;DHT22;69435;52.670;13.544;2023-11-21T10:00:10;6.90;65.20
21335;DHT22;69435;52.670;13.544;2023-11-21T10:02:58;7.00;65.20
21335;DHT22;69435;52.670;13.544;2023-11-21T10:05:45;6.90;65.20
21335;DHT22;69435;52.670;13.544;2023-11-21T10:08:34;7.00;65.40
21335;DHT22;69435;52.670;13.544;2023-11-21T10:11:24;6.90;65.30
21335;DHT22;69435;52.670;13.544;2023-11-21T10:14:12;6.90;65.20
21335;DHT22;69435;52.670;13.544;2023-11-21T10:16:59;6.90;65.20
21335;DHT22;69435;52.670;13.544;2023-11-21T10:19:49;6.90;65.40
21335;DHT22;69435;52.670;13.544;2023-11-21T10:22:35;6.90;65.50
21335;DHT22;69435;52.670;13.544;2023-11-21T10:25:21;6.90;65.50
21335;DHT22;69435;52.670;13.544;2023-11-21T10:28:10;7.00;65.40
21335;DHT22;69435;52.670;13.544;2023-11-21T10:30:56;6.90;65.20
21335;DHT22;69435;52.670;13.544;2023-11-21T10:33:42;6.90;65.20
21335;DHT22;69435;52.670;13.544;2023-11-21T10:36:28;6.90;65.20
21335;DHT22;69435;52.670;13.544;2023-11-21T10:39:19;6.90;65.30
21335;DHT22;69435;52.670;13.544;2023-11-21T10:42:08;7.00;65.30
21335;DHT22;69435;52.670;13.544;2023-11-21T10:44:55;7.10;65.40
21335;DHT22;69435;52.670;13.544;2023-11-21T10:47:43;7.10;65.40
21335;DHT22;69435;52.670;13.544;2023-11-21T10:50:30;7.20;65.30
21335;DHT22;69435;52.670;13.544;2023-11-21T10:53:16;7.20;65.20
21335;DHT22;69435;52.670;13.544;2023-11-21T10:56:05;7.30;65.10
21335;DHT22;69435;52.670;13.544;2023-11-21T10:58:53;7.40;65.10
21335;DHT22;69435;52.670;13.544;2023-11-21T11:01:42;7.40;64.90
21335;DHT22;69435;52.670;13.544;2023-11-21T11:04:31;7.50;64.80
21335;DHT22;69435;52.670;13.544;2023-11-21T11:07:19;7.50;64.30
21335;DHT22;69435;52.670;13.544;2023-11-21T11:10:09;7.50;64.30
21335;DHT22;69435;52.670;13.544;2023-11-21T11:13:00;7.50;64.00
21335;DHT22;69435;52.670;13.544;2023-11-21T11:15:47;7.50;63.80
21335;DHT22;69435;52.670;13.544;2023-11-21T11:18:34;7.50;63.70
21335;DHT22;69435;52.670;13.544;2023-11-21T11:28:10;7.40;63.40
21335;DHT22;69435;52.670;13.544;2023-11-21T11:31:18;7.40;63.50
21335;DHT22;69435;52.670;13.544;2023-11-21T11:34:30;7.30;63.40
21335;DHT22;69435;52.670;13.544;2023-11-21T11:37:19;7.30;63.40
21335;DHT22;69435;52.670;13.544;2023-11-21T11:40:11;7.30;63.40
21335;DHT22;69435;52.670;13.544;2023-11-21T11:42:58;7.20;63.40
21335;DHT22;69435;52.670;13.544;2023-11-21T11:45:48;7.20;63.40
21335;DHT22;69435;52.670;13.544;2023-11-21T11:48:40;7.20;63.60
21335;DHT22;69435;52.670;13.544;2023-11-21T11:51:26;7.20;63.90
21335;DHT22;69435;52.670;13.544;2023-11-21T11:54:12;7.10;63.80
21335;DHT22;69435;52.670;13.544;2023-11-21T11:56:59;7.10;64.00
21335;DHT22;69435;52.670;13.544;2023-11-21T12:00:17;7.10;64.00
21335;DHT22;69435;52.670;13.544;2023-11-21T12:03:10;7.10;64.10
21335;DHT22;69435;52.670;13.544;2023-11-21T12:06:00;7.00;64.00
21335;DHT22;69435;52.670;13.544;2023-11-21T12:08:46;7.00;64.40
21335;DHT22;69435;52.670;13.544;2023-11-21T12:11:32;7.00;64.40
21335;DHT22;69435;52.670;13.544;2023-11-21T12:14:21;7.00;64.60
21335;DHT22;69435;52.670;13.544;2023-11-21T12:17:09;7.00;64.70
21335;DHT22;69435;52.670;13.544;2023-11-21T12:20:02;7.00;65.30
21335;DHT22;69435;52.670;13.544;2023-11-21T12:23:00;7.00;64.60
21335;DHT22;69435;52.670;13.544;2023-11-21T12:25:46;7.00;64.60
21335;DHT22;69435;52.670;13.544;2023-11-21T12:28:32;7.00;65.50
21335;DHT22;69435;52.670;13.544;2023-11-21T12:31:19;7.00;64.90
21335;DHT22;69435;52.670;13.544;2023-11-21T12:34:05;7.00;65.00
21335;DHT22;69435;52.670;13.544;2023-11-21T12:36:52;7.00;65.00
21335;DHT22;69435;52.670;13.544;2023-11-21T12:39:40;6.90;65.00
21335;DHT22;69435;52.670;13.544;2023-11-21T12:42:26;7.00;64.80
21335;DHT22;69435;52.670;13.544;2023-11-21T12:45:23;6.90;64.70
21335;DHT22;69435;52.670;13.544;2023-11-21T12:48:16;6.90;64.50
21335;DHT22;69435;52.670;13.544;2023-11-21T12:51:10;6.90;64.30
21335;DHT22;69435;52.670;13.544;2023-11-21T12:53:57;6.80;64.20
21335;DHT22;69435;52.670;13.544;2023-11-21T12:56:49;6.70;64.00
21335;DHT22;69435;52.670;13.544;2023-11-21T12:59:35;6.70;64.00
21335;DHT22;69435;52.670;13.544;2023-11-21T13:02:27;6.60;63.90
21335;DHT22;69435;52.670;13.544;2023-11-21T13:05:33;6.60;64.10
21335;DHT22;69435;52.670;13.544;2023-11-21T13:08:24;6.60;64.00
21335;DHT22;69435;52.670;13.544;2023-11-21T13:11:11;6.50;64.00
21335;DHT22;69435;52.670;13.544;2023-11-21T13:13:59;6.50;64.00
21335;DHT22;69435;52.670;13.544;2023-11-21T13:16:46;6.50;64.20
21335;DHT22;69435;52.670;13.544;2023-11-21T13:19:32;6.40;64.10
21335;DHT22;69435;52.670;13.544;2023-11-21T13:22:18;6.40;63.90
21335;DHT22;69435;52.670;13.544;2023-11-21T13:25:04;6.30;63.90
21335;DHT22;69435;52.670;13.544;2023-11-21T13:27:59;6.30;64.10
21335;DHT22;69435;52.670;13.544;2023-11-21T13:30:46;6.30;64.20
21335;DHT22;69435;52.670;13.544;2023-11-21T13:33:33;6.20;64.10
21335;DHT22;69435;52.670;13.544;2023-11-21T13:36:24;6.20;64.30
21335;DHT22;69435;52.670;13.544;2023-11-21T13:39:10;6.20;65.00
21335;DHT22;69435;52.670;13.544;2023-11-21T13:42:01;6.10;64.00
21335;DHT22;69435;52.670;13.544;2023-11-21T13:44:49;6.10;64.20
21335;DHT22;69435;52.670;13.544;2023-11-21T13:47:37;6.00;64.30
21335;DHT22;69435;52.670;13.544;2023-11-21T13:50:25;6.00;64.40
21335;DHT22;69435;52.670;13.544;2023-11-21T13:53:18;6.00;64.70
21335;DHT22;69435;52.670;13.544;2023-11-21T13:56:08;6.00;64.50
21335;DHT22;69435;52.670;13.544;2023-11-21T13:58:54;6.00;64.50
21335;DHT22;69435;52.670;13.544;2023-11-21T14:01:41;5.90;64.30
21335;DHT22;69435;52.670;13.544;2023-11-21T14:04:40;5.90;64.30
21335;DHT22;69435;52.670;13.544;2023-11-21T14:07:41;5.80;64.20
21335;DHT22;69435;52.670;13.544;2023-11-21T14:10:33;5.80;65.10
21335;DHT22;69435;52.670;13.544;2023-11-21T14:13:36;5.80;64.50
21335;DHT22;69435;52.670;13.544;2023-11-21T14:16:22;5.60;64.70
21335;DHT22;69435;52.670;13.544;2023-11-21T14:19:08;5.70;65.00
21335;DHT22;69435;52.670;13.544;2023-11-21T14:22:01;5.60;64.80
21335;DHT22;69435;52.670;13.544;2023-11-21T14:24:47;5.60;64.60
21335;DHT22;69435;52.670;13.544;2023-11-21T14:27:35;5.50;64.60
21335;DHT22;69435;52.670;13.544;2023-11-21T14:30:21;5.50;64.40
21335;DHT22;69435;52.670;13.544;2023-11-21T14:33:08;5.50;64.50
21335;DHT22;69435;52.670;13.544;2023-11-21T14:35:57;5.50;64.30
21335;DHT22;69435;52.670;13.544;2023-11-21T14:38:43;5.40;64.10
21335;DHT22;69435;52.670;13.544;2023-11-21T14:41:29;5.40;64.10
21335;DHT22;69435;52.670;13.544;2023-11-21T14:44:15;5.40;63.90
21335;DHT22;69435;52.670;13.544;2023-11-21T14:47:02;5.30;63.70
21335;DHT22;69435;52.670;13.544;2023-11-21T14:49:53;5.30;63.70
21335;DHT22;69435;52.670;13.544;2023-11-21T14:52:39;5.30;63.40
21335;DHT22;69435;52.670;13.544;2023-11-21T14:55:40;5.30;63.50
21335;DHT22;69435;52.670;13.544;2023-11-21T14:58:42;5.30;63.50
21335;DHT22;69435;52.670;13.544;2023-11-21T15:01:31;5.20;63.30
21335;DHT22;69435;52.670;13.544;2023-11-21T15:04:36;5.20;63.60
21335;DHT22;69435;52.670;13.544;2023-11-21T15:07:23;5.20;63.70
21335;DHT22;69435;52.670;13.544;2023-11-21T15:10:12;5.20;63.80
21335;DHT22;69435;52.670;13.544;2023-11-21T15:13:00;5.20;63.80
21335;DHT22;69435;52.670;13.544;2023-11-21T15:15:48;5.30;64.20
21335;DHT22;69435;52.670;13.544;2023-11-21T15:18:35;5.30;64.00
21335;DHT22;69435;52.670;13.544;2023-11-21T15:21:21;5.30;63.80
21335;DHT22;69435;52.670;13.544;2023-11-21T15:24:10;5.30;63.90
21335;DHT22;69435;52.670;13.544;2023-11-21T15:26:56;5.30;63.70
21335;DHT22;69435;52.670;13.544;2023-11-21T15:29:43;5.30;63.70
21335;DHT22;69435;52.670;13.544;2023-11-21T15:32:29;5.30;63.40
21335;DHT22;69435;52.670;13.544;2023-11-21T15:35:15;5.20;63.20
21335;DHT22;69435;52.670;13.544;2023-11-21T15:38:02;5.20;63.30
21335;DHT22;69435;52.670;13.544;2023-11-21T15:40:48;5.20;63.30
21335;DHT22;69435;52.670;13.544;2023-11-21T15:43:35;5.20;63.20
21335;DHT22;69435;52.670;13.544;2023-11-21T15:46:21;5.20;63.00
21335;DHT22;69435;52.670;13.544;2023-11-21T15:49:07;5.20;63.20
21335;DHT22;69435;52.670;13.544;2023-11-21T15:51:58;5.20;63.70
21335;DHT22;69435;52.670;13.544;2023-11-21T15:54:45;5.20;62.90
21335;DHT22;69435;52.670;13.544;2023-11-21T15:57:31;5.20;63.00
21335;DHT22;69435;52.670;13.544;2023-11-21T16:00:18;5.20;63.00
21335;DHT22;69435;52.670;13.544;2023-11-21T16:03:07;5.20;62.70
21335;DHT22;69435;52.670;13.544;2023-11-21T16:05:55;5.20;62.60
21335;DHT22;69435;52.670;13.544;2023-11-21T16:08:41;5.20;62.60
21335;DHT22;69435;52.670;13.544;2023-11-21T16:11:27;5.20;62.70
21335;DHT22;69435;52.670;13.544;2023-11-21T16:14:15;5.20;62.50
21335;DHT22;69435;52.670;13.544;2023-11-21T16:17:05;5.20;62.40
21335;DHT22;69435;52.670;13.544;2023-11-21T16:19:54;5.20;62.40
21335;DHT22;69435;52.670;13.544;2023-11-21T16:22:41;5.20;62.10
21335;DHT22;69435;52.670;13.544;2023-11-21T16:25:27;5.20;61.90
21335;DHT22;69435;52.670;13.544;2023-11-21T16:28:13;5.20;61.70
21335;DHT22;69435;52.670;13.544;2023-11-21T16:30:59;5.10;61.50
21335;DHT22;69435;52.670;13.544;2023-11-21T16:33:46;5.10;61.30
21335;DHT22;69435;52.670;13.544;2023-11-21T16:36:34;5.10;61.20
21335;DHT22;69435;52.670;13.544;2023-11-21T16:39:20;5.10;62.00
21335;DHT22;69435;52.670;13.544;2023-11-21T16:42:07;5.10;61.10
21335;DHT22;69435;52.670;13.544;2023-11-21T16:44:53;5.10;61.20
21335;DHT22;69435;52.670;13.544;2023-11-21T16:47:42;5.10;61.20
21335;DHT22;69435;52.670;13.544;2023-11-21T16:50:29;5.10;60.70
21335;DHT22;69435;52.670;13.544;2023-11-21T16:53:15;5.10;60.80
21335;DHT22;69435;52.670;13.544;2023-11-21T16:56:01;5.10;60.70
21335;DHT22;69435;52.670;13.544;2023-11-21T16:58:47;5.00;60.60
21335;DHT22;69435;52.670;13.544;2023-11-21T17:01:34;5.00;60.50
21335;DHT22;69435;52.670;13.544;2023-11-21T17:04:20;5.00;60.50
21335;DHT22;69435;52.670;13.544;2023-11-21T17:07:08;4.90;60.20
21335;DHT22;69435;52.670;13.544;2023-11-21T17:09:54;5.00;60.20
21335;DHT22;69435;52.670;13.544;2023-11-21T17:12:40;4.90;60.20
21335;DHT22;69435;52.670;13.544;2023-11-21T17:15:26;4.90;60.10
21335;DHT22;69435;52.670;13.544;2023-11-21T17:18:13;4.90;60.30
21335;DHT22;69435;52.670;13.544;2023-11-21T17:20:59;4.90;60.30
21335;DHT22;69435;52.670;13.544;2023-11-21T17:23:45;4.80;60.30
21335;DHT22;69435;52.670;13.544;2023-11-21T17:26:31;4.90;60.40
21335;DHT22;69435;52.670;13.544;2023-11-21T17:29:17;4.80;60.40
21335;DHT22;69435;52.670;13.544;2023-11-21T17:32:03;4.80;60.30
21335;DHT22;69435;52.670;13.544;2023-11-21T17:34:50;4.80;60.20
21335;DHT22;69435;52.670;13.544;2023-11-21T17:37:36;4.80;60.10
21335;DHT22;69435;52.670;13.544;2023-11-21T17:40:24;4.80;60.10
21335;DHT22;69435;52.670;13.544;2023-11-21T17:43:11;4.80;60.00
21335;DHT22;69435;52.670;13.544;2023-11-21T17:45:59;4.80;59.90